Time;durP1;ratioP1;P1;durP2;ratioP2;P2;SDS_P1;SDS_P2;PMS_P1;PMS_P2;Temp;Humidity;BMP_temperature;BMP_pressure;BME280_temperature;BME280_humidity;BME280_pressure;Samples;Min_cycle;Max_cycle;Signal;HPM_P1;HPM_P2
2023/05/05 00:00:27;;;;;;;;;;;8.30;64.20;;;;;;4141708;28;20458;-84
2023/05/05 00:02:28;;;;;;;;;;;8.10;64.60;;;;;;4141507;28;20458;-84
2023/05/05 00:04:31;;;;;;;;;;;8.10;64.70;;;;;;4127572;28;20635;-84
2023/05/05 00:06:31;;;;;;;;;;;8.10;64.90;;;;;;4112463;28;19918;-85
2023/05/05 00:08:32;;;;;;;;;;;7.90;65.60;;;;;;4141106;28;19929;-84
2023/05/05 00:10:33;;;;;;;;;;;8.00;65.70;;;;;;4140709;28;19913;-85
2023/05/05 00:12:33;;;;;;;;;;;8.00;65.70;;;;;;4124881;28;19917;-85
2023/05/05 00:14:54;;;;;;;;;;;8.00;66.20;;;;;;4126819;28;19913;-83
2023/05/05 00:16:55;;;;;;;;;;;7.90;67.00;;;;;;4141531;28;19975;-84
2023/05/05 00:19:15;;;;;;;;;;;7.90;67.40;;;;;;4139249;28;20478;-84
2023/05/05 00:21:16;;;;;;;;;;;7.80;68.00;;;;;;4139816;28;19917;-88
2023/05/05 00:23:37;;;;;;;;;;;7.90;67.80;;;;;;4126053;28;19918;-83
2023/05/05 00:25:37;;;;;;;;;;;7.80;68.30;;;;;;4118191;28;19914;-85
2023/05/05 00:27:58;;;;;;;;;;;7.80;68.80;;;;;;4119821;28;19957;-85
2023/05/05 00:30:19;;;;;;;;;;;7.90;68.90;;;;;;4134094;28;19934;-84
2023/05/05 00:32:39;;;;;;;;;;;7.80;69.50;;;;;;4142697;28;19917;-85
2023/05/05 00:35:00;;;;;;;;;;;7.80;70.50;;;;;;4139936;28;19913;-85
2023/05/05 00:37:20;;;;;;;;;;;7.80;70.60;;;;;;4142963;28;19933;-85
2023/05/05 00:39:42;;;;;;;;;;;7.70;71.70;;;;;;4140635;28;19914;-85
2023/05/05 00:42:03;;;;;;;;;;;7.50;72.50;;;;;;4141167;28;19925;-84
2023/05/05 00:44:38;;;;;;;;;;;7.70;72.80;;;;;;4126803;28;19921;-84
2023/05/05 00:46:40;;;;;;;;;;;7.60;73.10;;;;;;4142920;28;20000;-86
2023/05/05 00:48:41;;;;;;;;;;;7.60;73.40;;;;;;4140810;28;19918;-85
2023/05/05 00:50:42;;;;;;;;;;;7.70;74.00;;;;;;4122241;28;20021;-85
2023/05/05 00:52:46;;;;;;;;;;;7.60;73.80;;;;;;4102125;28;19918;-87
2023/05/05 00:54:46;;;;;;;;;;;7.60;73.90;;;;;;4125254;28;20072;-85
2023/05/05 00:56:49;;;;;;;;;;;7.60;73.80;;;;;;4121790;28;19917;-85
2023/05/05 00:58:50;;;;;;;;;;;7.40;73.40;;;;;;4139447;28;19940;-86
2023/05/05 01:00:51;;;;;;;;;;;7.50;73.60;;;;;;4106392;28;19919;-85
2023/05/05 01:02:52;;;;;;;;;;;7.60;73.60;;;;;;4137943;28;20295;-85
2023/05/05 01:05:13;;;;;;;;;;;7.60;73.50;;;;;;4121279;28;19917;-85
2023/05/05 01:07:17;;;;;;;;;;;7.60;73.50;;;;;;4110788;28;19914;-87
2023/05/05 01:09:46;;;;;;;;;;;7.70;73.30;;;;;;4140454;28;19918;-86
2023/05/05 01:12:19;;;;;;;;;;;7.70;73.10;;;;;;4141380;28;19917;-85
2023/05/05 01:14:42;;;;;;;;;;;7.60;73.20;;;;;;4138875;28;19913;-85
2023/05/05 01:17:14;;;;;;;;;;;7.60;73.90;;;;;;4128786;28;19988;-84
2023/05/05 01:20:00;;;;;;;;;;;7.50;74.10;;;;;;4140737;28;19922;-85
2023/05/05 01:22:23;;;;;;;;;;;7.50;74.40;;;;;;4125318;28;19933;-86
2023/05/05 01:25:02;;;;;;;;;;;7.60;74.00;;;;;;4140231;28;19917;-85
2023/05/05 01:27:37;;;;;;;;;;;7.60;73.90;;;;;;4138636;28;19925;-83
2023/05/05 01:30:24;;;;;;;;;;;7.50;74.20;;;;;;4139730;28;19932;-85
2023/05/05 01:32:50;;;;;;;;;;;7.50;74.30;;;;;;4143902;28;19960;-85
2023/05/05 01:34:59;;;;;;;;;;;7.40;74.80;;;;;;4127121;28;19917;-85
2023/05/05 01:37:06;;;;;;;;;;;7.30;75.20;;;;;;4146680;28;20036;-83
2023/05/05 01:39:08;;;;;;;;;;;7.40;75.40;;;;;;4138615;28;19961;-85
2023/05/05 01:41:24;;;;;;;;;;;7.40;75.50;;;;;;4129055;28;19926;-84
2023/05/05 01:43:26;;;;;;;;;;;7.30;75.90;;;;;;4140750;28;19975;-85
2023/05/05 01:45:28;;;;;;;;;;;7.30;75.70;;;;;;4136741;28;19960;-85
2023/05/05 01:47:29;;;;;;;;;;;7.20;75.90;;;;;;4139779;28;19917;-83
2023/05/05 01:49:31;;;;;;;;;;;7.20;76.20;;;;;;4106718;28;19954;-85
2023/05/05 01:51:33;;;;;;;;;;;7.20;76.00;;;;;;4140205;28;19934;-85
2023/05/05 01:53:37;;;;;;;;;;;7.30;76.00;;;;;;4136670;28;19928;-88
2023/05/05 01:55:38;;;;;;;;;;;7.20;76.30;;;;;;4122152;28;19918;-85
2023/05/05 01:57:40;;;;;;;;;;;7.30;76.20;;;;;;4135636;28;20409;-85
2023/05/05 01:59:41;;;;;;;;;;;7.20;75.90;;;;;;4137429;28;19914;-85
2023/05/05 02:01:45;;;;;;;;;;;7.20;76.10;;;;;;4120268;28;19928;-84
2023/05/05 02:04:00;;;;;;;;;;;7.10;76.40;;;;;;4123201;28;19934;-83
2023/05/05 02:06:02;;;;;;;;;;;7.20;76.40;;;;;;4127533;28;20500;-85
2023/05/05 02:08:24;;;;;;;;;;;7.20;76.30;;;;;;4128811;28;20304;-85
2023/05/05 02:10:46;;;;;;;;;;;7.20;76.30;;;;;;4133125;28;19921;-82
2023/05/05 02:13:09;;;;;;;;;;;7.30;76.00;;;;;;4131580;28;19941;-86
2023/05/05 02:15:30;;;;;;;;;;;7.20;76.10;;;;;;4142386;28;19928;-85
2023/05/05 02:17:51;;;;;;;;;;;7.20;76.00;;;;;;4142330;28;19924;-86
2023/05/05 02:20:13;;;;;;;;;;;7.20;76.20;;;;;;4129586;28;19921;-84
2023/05/05 02:22:36;;;;;;;;;;;7.10;75.90;;;;;;4150185;23;21980;-86
2023/05/05 02:25:02;;;;;;;;;;;7.20;76.10;;;;;;4144752;28;19913;-88
2023/05/05 02:27:32;;;;;;;;;;;7.20;76.10;;;;;;4145542;28;19918;-85
2023/05/05 02:30:17;;;;;;;;;;;7.30;76.20;;;;;;4144824;28;19980;-85
2023/05/05 02:32:52;;;;;;;;;;;7.20;75.70;;;;;;4131536;28;19921;-83
2023/05/05 02:35:26;;;;;;;;;;;7.10;75.80;;;;;;4148887;28;19944;-89
2023/05/05 02:37:55;;;;;;;;;;;7.10;76.30;;;;;;4144650;28;19913;-87
2023/05/05 02:40:28;;;;;;;;;;;6.90;76.90;;;;;;4135091;28;19967;-87
2023/05/05 02:43:11;;;;;;;;;;;6.90;77.10;;;;;;4130952;28;19929;-88
2023/05/05 02:45:38;;;;;;;;;;;7.00;77.30;;;;;;4135034;28;20567;-82
2023/05/05 02:48:28;;;;;;;;;;;7.00;77.30;;;;;;4133331;28;20524;-87
2023/05/05 02:51:10;;;;;;;;;;;7.00;77.30;;;;;;4134527;28;19917;-85
2023/05/05 02:53:46;;;;;;;;;;;7.10;77.30;;;;;;4117749;28;19969;-85
2023/05/05 02:56:36;;;;;;;;;;;7.00;77.40;;;;;;4120355;28;19925;-87
2023/05/05 02:59:27;;;;;;;;;;;7.00;77.50;;;;;;4098800;28;19926;-86
2023/05/05 03:03:48;;;;;;;;;;;6.80;77.70;;;;;;4154106;28;19925;-85
2023/05/05 03:06:01;;;;;;;;;;;6.90;77.80;;;;;;4151034;28;19921;-84
2023/05/05 03:08:30;;;;;;;;;;;6.90;77.70;;;;;;4155240;28;19914;-84
2023/05/05 03:10:39;;;;;;;;;;;7.00;77.50;;;;;;4135599;28;19921;-84
2023/05/05 03:12:52;;;;;;;;;;;7.00;77.40;;;;;;4138435;28;19937;-83
2023/05/05 03:15:17;;;;;;;;;;;7.00;77.50;;;;;;4115297;28;19914;-84
2023/05/05 03:17:34;;;;;;;;;;;6.90;77.40;;;;;;4084916;29;20033;-84
2023/05/05 03:19:50;;;;;;;;;;;6.90;77.40;;;;;;4052592;29;19939;-84
2023/05/05 03:22:04;;;;;;;;;;;6.90;77.40;;;;;;4047610;29;19928;-85
2023/05/05 03:24:27;;;;;;;;;;;6.80;77.30;;;;;;4048939;29;20045;-85
2023/05/05 03:26:33;;;;;;;;;;;6.90;77.50;;;;;;4052934;29;19980;-85
2023/05/05 03:28:44;;;;;;;;;;;7.00;77.40;;;;;;4049914;29;20110;-84
2023/05/05 03:31:23;;;;;;;;;;;7.00;77.40;;;;;;4066417;29;19922;-84
2023/05/05 03:33:47;;;;;;;;;;;6.90;77.50;;;;;;4065077;29;19915;-86
2023/05/05 03:36:02;;;;;;;;;;;6.90;77.50;;;;;;4075840;29;19914;-84
2023/05/05 03:38:28;;;;;;;;;;;6.90;77.80;;;;;;4080682;29;19974;-89
2023/05/05 03:40:45;;;;;;;;;;;6.80;77.60;;;;;;4078245;29;20010;-84
2023/05/05 03:43:02;;;;;;;;;;;6.70;78.30;;;;;;4047556;29;19987;-84
2023/05/05 03:45:12;;;;;;;;;;;6.70;78.20;;;;;;4056385;29;19915;-83
2023/05/05 03:47:16;;;;;;;;;;;6.80;78.20;;;;;;4065736;29;19919;-87
2023/05/05 03:49:41;;;;;;;;;;;6.80;77.90;;;;;;4037860;29;19947;-86
2023/05/05 03:52:00;;;;;;;;;;;6.80;77.80;;;;;;4039108;29;19916;-88
2023/05/05 03:54:27;;;;;;;;;;;6.90;77.60;;;;;;4052835;29;20018;-85
2023/05/05 03:56:30;;;;;;;;;;;6.90;77.50;;;;;;4106483;28;20102;-84
2023/05/05 03:58:38;;;;;;;;;;;6.90;77.80;;;;;;4083388;29;20022;-85
2023/05/05 04:00:49;;;;;;;;;;;6.70;77.70;;;;;;4095078;28;20050;-85
2023/05/05 04:02:53;;;;;;;;;;;7.00;77.70;;;;;;4062771;29;19923;-87
2023/05/05 04:04:54;;;;;;;;;;;6.90;77.50;;;;;;4096945;28;19987;-85
2023/05/05 04:07:08;;;;;;;;;;;6.80;77.40;;;;;;4083640;29;19919;-85
2023/05/05 04:09:10;;;;;;;;;;;6.80;77.20;;;;;;4077891;29;19914;-88
2023/05/05 04:11:28;;;;;;;;;;;6.90;77.10;;;;;;4077535;29;19919;-85
2023/05/05 04:14:20;;;;;;;;;;;6.80;76.70;;;;;;4093207;28;20017;-85
2023/05/05 04:16:30;;;;;;;;;;;6.90;77.10;;;;;;4079874;28;19930;-84
2023/05/05 04:18:33;;;;;;;;;;;6.90;76.20;;;;;;4080206;29;20005;-85
2023/05/05 04:20:57;;;;;;;;;;;6.80;76.10;;;;;;4115498;28;19929;-88
2023/05/05 04:23:41;;;;;;;;;;;6.70;76.60;;;;;;4138762;28;19925;-86
2023/05/05 04:26:07;;;;;;;;;;;6.70;75.90;;;;;;4140029;28;20011;-87
2023/05/05 04:28:33;;;;;;;;;;;6.80;75.70;;;;;;4135472;28;19917;-87
2023/05/05 04:30:54;;;;;;;;;;;6.60;75.70;;;;;;4132079;28;19913;-86
2023/05/05 04:33:21;;;;;;;;;;;6.80;75.90;;;;;;4127433;28;20020;-85
2023/05/05 04:35:50;;;;;;;;;;;6.80;75.40;;;;;;4121097;28;19932;-88
2023/05/05 04:38:26;;;;;;;;;;;6.60;75.30;;;;;;4143681;28;19918;-87
2023/05/05 04:40:58;;;;;;;;;;;6.70;75.30;;;;;;4141150;28;20008;-87
2023/05/05 04:43:26;;;;;;;;;;;6.70;74.60;;;;;;4142747;28;19922;-85
2023/05/05 04:45:35;;;;;;;;;;;6.90;74.80;;;;;;4142338;28;20383;-85
2023/05/05 04:48:04;;;;;;;;;;;6.80;74.60;;;;;;4094527;28;20222;-86
2023/05/05 04:50:24;;;;;;;;;;;6.90;74.30;;;;;;4123121;28;19937;-86
2023/05/05 04:52:41;;;;;;;;;;;;;;;;;;;;;
2023/05/05 04:55:03;;;;;;;;;;;6.80;74.20;;;;;;4126873;28;19929;-86
2023/05/05 04:57:09;;;;;;;;;;;6.60;74.30;;;;;;4125441;28;20403;-84
2023/05/05 04:59:36;;;;;;;;;;;6.60;74.20;;;;;;4137325;28;19917;-85
2023/05/05 05:01:47;;;;;;;;;;;6.70;74.20;;;;;;4124195;23;19929;-85
2023/05/05 05:04:31;;;;;;;;;;;6.90;74.40;;;;;;4125838;28;19918;-87
2023/05/05 05:06:36;;;;;;;;;;;6.90;74.20;;;;;;4133385;28;19967;-88
2023/05/05 05:08:48;;;;;;;;;;;6.80;73.80;;;;;;4127399;28;20008;-88
2023/05/05 05:11:14;;;;;;;;;;;6.70;73.40;;;;;;4124470;28;19930;-86
2023/05/05 05:13:51;;;;;;;;;;;6.60;73.60;;;;;;4125798;28;19914;-88
2023/05/05 05:16:07;;;;;;;;;;;6.70;73.40;;;;;;4153929;28;19913;-85
2023/05/05 05:21:17;;;;;;;;;;;;;;;;;;;;;
2023/05/05 05:23:31;;;;;;;;;;;6.90;71.90;;;;;;4078129;29;19954;-89
2023/05/05 05:25:49;;;;;;;;;;;6.90;71.90;;;;;;4109728;28;19914;-85
2023/05/05 05:28:18;;;;;;;;;;;7.00;71.70;;;;;;4072345;29;19911;-86
2023/05/05 05:30:24;;;;;;;;;;;7.10;71.60;;;;;;4102073;28;19928;-87
2023/05/05 05:32:27;;;;;;;;;;;7.00;71.50;;;;;;4091535;28;20015;-86
2023/05/05 05:34:54;;;;;;;;;;;7.10;71.00;;;;;;4076705;28;20381;-87
2023/05/05 05:37:16;;;;;;;;;;;6.90;70.40;;;;;;4098196;28;20376;-86
2023/05/05 05:39:43;;;;;;;;;;;7.00;70.50;;;;;;4055596;29;19919;-86
2023/05/05 05:41:51;;;;;;;;;;;7.00;69.90;;;;;;4096231;28;20344;-87
2023/05/05 05:44:12;;;;;;;;;;;7.20;70.10;;;;;;4063293;29;19922;-87
2023/05/05 05:46:21;;;;;;;;;;;7.10;70.00;;;;;;4067485;29;20454;-88
2023/05/05 05:51:20;;;;;;;;;;;7.00;69.80;;;;;;4072907;29;19990;-86
2023/05/05 05:53:29;;;;;;;;;;;7.00;69.50;;;;;;4064617;29;19922;-86
2023/05/05 05:55:55;;;;;;;;;;;6.90;70.30;;;;;;4106463;28;19966;-87
2023/05/05 05:58:24;;;;;;;;;;;7.00;69.90;;;;;;4133274;28;19917;-86
2023/05/05 06:00:57;;;;;;;;;;;;;;;;;;;;;
2023/05/05 06:03:16;;;;;;;;;;;7.10;68.90;;;;;;4135102;28;19964;-86
2023/05/05 06:05:40;;;;;;;;;;;7.20;69.10;;;;;;4138279;28;19917;-87
2023/05/05 06:08:09;;;;;;;;;;;7.30;68.70;;;;;;4142488;28;19950;-86
2023/05/05 06:10:41;;;;;;;;;;;7.30;68.40;;;;;;4141585;28;19929;-87
2023/05/05 06:13:22;;;;;;;;;;;;;;;;;;;;;
2023/05/05 06:15:45;;;;;;;;;;;7.60;68.10;;;;;;4154168;28;19913;-86
2023/05/05 06:18:13;;;;;;;;;;;7.50;68.10;;;;;;4140158;28;19940;-86
2023/05/05 06:20:44;;;;;;;;;;;;;;;;;;;;;
2023/05/05 06:23:24;;;;;;;;;;;7.50;67.30;;;;;;4105614;28;20210;-87
2023/05/05 06:25:52;;;;;;;;;;;7.60;67.30;;;;;;4092029;28;20281;-86
2023/05/05 06:28:41;;;;;;;;;;;7.80;67.50;;;;;;4109621;28;19953;-85
2023/05/05 06:31:05;;;;;;;;;;;7.90;66.40;;;;;;4076940;28;20424;-87
2023/05/05 06:33:27;;;;;;;;;;;7.80;65.50;;;;;;4076419;28;19978;-86
2023/05/05 06:35:59;;;;;;;;;;;7.90;65.00;;;;;;4099587;28;19922;-89
2023/05/05 06:38:28;;;;;;;;;;;8.10;65.10;;;;;;4092434;28;19915;-86
2023/05/05 06:41:12;;;;;;;;;;;8.10;65.30;;;;;;4095459;28;19923;-87
2023/05/05 06:43:41;;;;;;;;;;;8.10;64.20;;;;;;4092755;28;20033;-85
2023/05/05 06:46:31;;;;;;;;;;;8.20;64.60;;;;;;4094256;28;19914;-87
2023/05/05 06:48:35;;;;;;;;;;;8.10;64.10;;;;;;4090139;28;19959;-89
2023/05/05 06:51:02;;;;;;;;;;;8.10;64.40;;;;;;4130614;28;19922;-87
2023/05/05 06:53:20;;;;;;;;;;;8.10;64.70;;;;;;4113197;28;19914;-85
2023/05/05 06:55:34;;;;;;;;;;;8.20;64.80;;;;;;4109571;28;20380;-87
2023/05/05 07:01:13;;;;;;;;;;;;;;;;;;;;;
2023/05/05 07:03:40;;;;;;;;;;;7.90;62.80;;;;;;4050739;29;19924;-85
2023/05/05 07:05:55;;;;;;;;;;;8.10;63.40;;;;;;4040506;29;19916;-86
2023/05/05 07:11:19;;;;;;;;;;;;;;;;;;;;;
2023/05/05 07:13:26;;;;;;;;;;;7.90;61.50;;;;;;4017731;29;19920;-87
2023/05/05 07:16:06;;;;;;;;;;;;;;;;;;;;;
2023/05/05 07:18:20;;;;;;;;;;;7.90;60.30;;;;;;4016220;29;19960;-85
2023/05/05 07:20:50;;;;;;;;;;;7.60;62.00;;;;;;3997016;29;19923;-85
2023/05/05 07:23:10;;;;;;;;;;;7.70;63.10;;;;;;4005390;29;19913;-90
2023/05/05 07:25:36;;;;;;;;;;;7.70;63.30;;;;;;4004666;29;19908;-90
2023/05/05 07:30:27;;;;;;;;;;;7.80;62.50;;;;;;4042929;29;19952;-89
2023/05/05 07:32:39;;;;;;;;;;;7.90;62.10;;;;;;4066250;29;19904;-87
2023/05/05 07:34:51;;;;;;;;;;;7.70;61.40;;;;;;4063997;29;19959;-88
2023/05/05 07:37:34;;;;;;;;;;;7.70;61.70;;;;;;4050188;29;19915;-87
2023/05/05 07:39:50;;;;;;;;;;;7.70;61.10;;;;;;3989041;29;19964;-85
2023/05/05 07:42:11;;;;;;;;;;;7.80;61.50;;;;;;4002365;29;19924;-85
2023/05/05 07:44:15;;;;;;;;;;;8.00;61.00;;;;;;4003892;29;20019;-88
2023/05/05 07:46:36;;;;;;;;;;;7.90;60.80;;;;;;4012298;29;20018;-86
2023/05/05 07:48:48;;;;;;;;;;;7.90;61.10;;;;;;4016028;29;19981;-86
2023/05/05 07:51:02;;;;;;;;;;;7.90;62.00;;;;;;3987273;29;20004;-86
2023/05/05 07:53:11;;;;;;;;;;;8.00;61.80;;;;;;4273980;22;20164;-87
2023/05/05 07:55:59;;;;;;;;;;;8.20;62.20;;;;;;4129311;28;19918;-91
2023/05/05 07:58:10;;;;;;;;;;;8.10;60.70;;;;;;4106300;28;19918;-90
2023/05/05 08:00:31;;;;;;;;;;;8.10;60.00;;;;;;4112558;28;19977;-86
2023/05/05 08:03:14;;;;;;;;;;;8.20;60.60;;;;;;4124842;28;20366;-86
2023/05/05 08:05:25;;;;;;;;;;;8.20;60.00;;;;;;4109907;28;19965;-85
2023/05/05 08:07:45;;;;;;;;;;;;;;;;;;;;;
2023/05/05 08:09:54;;;;;;;;;;;8.30;59.30;;;;;;4123355;28;19953;-87
2023/05/05 08:12:11;;;;;;;;;;;8.40;59.00;;;;;;4126114;28;19917;-86
2023/05/05 08:14:19;;;;;;;;;;;8.30;59.60;;;;;;4114492;28;20384;-86
2023/05/05 08:16:33;;;;;;;;;;;8.40;59.60;;;;;;4101515;28;20013;-87
2023/05/05 08:19:21;;;;;;;;;;;8.40;59.40;;;;;;4136837;28;19913;-88
2023/05/05 08:23:33;;;;;;;;;;;8.70;59.70;;;;;;4140756;28;20002;-83
2023/05/05 08:25:33;;;;;;;;;;;8.80;59.00;;;;;;4143502;28;20489;-84
2023/05/05 08:27:34;;;;;;;;;;;8.80;58.90;;;;;;4136429;28;19918;-85
2023/05/05 08:29:34;;;;;;;;;;;9.00;58.90;;;;;;4147156;28;19928;-84
2023/05/05 08:31:38;;;;;;;;;;;9.00;58.60;;;;;;4121221;28;19992;-84
2023/05/05 08:33:39;;;;;;;;;;;8.60;57.30;;;;;;4109430;28;20001;-85
2023/05/05 08:35:40;;;;;;;;;;;8.60;57.50;;;;;;4128047;28;21099;-86
2023/05/05 08:37:43;;;;;;;;;;;8.60;58.10;;;;;;4114201;28;19957;-85
2023/05/05 08:39:44;;;;;;;;;;;8.70;57.70;;;;;;4129109;28;20075;-83
2023/05/05 08:41:45;;;;;;;;;;;8.50;57.90;;;;;;4130464;28;19921;-84
2023/05/05 08:43:51;;;;;;;;;;;8.60;58.40;;;;;;4107721;28;19922;-86
2023/05/05 08:45:58;;;;;;;;;;;8.60;58.20;;;;;;4093213;28;19926;-83
2023/05/05 08:48:02;;;;;;;;;;;8.70;57.90;;;;;;4127505;28;19971;-83
2023/05/05 08:50:07;;;;;;;;;;;8.70;57.70;;;;;;4130114;28;19918;-83
2023/05/05 08:52:08;;;;;;;;;;;8.80;57.70;;;;;;4113618;28;19957;-83
2023/05/05 08:54:13;;;;;;;;;;;8.50;55.70;;;;;;4128313;28;20379;-87
2023/05/05 08:56:14;;;;;;;;;;;8.80;56.50;;;;;;4129089;28;19957;-83
2023/05/05 08:58:16;;;;;;;;;;;8.90;56.30;;;;;;4130587;28;19922;-81
2023/05/05 09:00:18;;;;;;;;;;;8.70;55.90;;;;;;4112154;28;20324;-84
2023/05/05 09:02:22;;;;;;;;;;;8.80;56.30;;;;;;4115065;28;19989;-83
2023/05/05 09:04:23;;;;;;;;;;;9.00;55.90;;;;;;4127303;28;20314;-85
2023/05/05 09:06:25;;;;;;;;;;;8.90;55.50;;;;;;4123035;28;19964;-83
2023/05/05 09:08:27;;;;;;;;;;;9.10;55.90;;;;;;4102786;28;19993;-85
2023/05/05 09:10:28;;;;;;;;;;;9.30;56.20;;;;;;4126479;28;20267;-84
2023/05/05 09:12:31;;;;;;;;;;;9.30;55.80;;;;;;4127299;28;19913;-84
2023/05/05 09:14:32;;;;;;;;;;;9.40;56.40;;;;;;4109743;28;19922;-84
2023/05/05 09:16:32;;;;;;;;;;;9.50;56.10;;;;;;4118091;28;19924;-84
2023/05/05 09:18:35;;;;;;;;;;;9.60;56.00;;;;;;4120275;28;19924;-83
2023/05/05 09:20:37;;;;;;;;;;;9.50;54.80;;;;;;4125977;28;19918;-85
2023/05/05 09:22:42;;;;;;;;;;;9.70;55.50;;;;;;4109086;28;19937;-85
2023/05/05 09:24:53;;;;;;;;;;;9.90;55.80;;;;;;4128408;28;19922;-84
2023/05/05 09:26:54;;;;;;;;;;;9.80;55.20;;;;;;4132603;28;19917;-84
2023/05/05 09:28:55;;;;;;;;;;;10.10;54.80;;;;;;4127303;28;19945;-84
2023/05/05 09:31:10;;;;;;;;;;;9.90;53.20;;;;;;4128836;28;19918;-84
2023/05/05 09:33:11;;;;;;;;;;;10.00;53.70;;;;;;4122754;28;19928;-85
2023/05/05 09:35:12;;;;;;;;;;;10.00;54.40;;;;;;4121162;28;19914;-83
2023/05/05 09:37:25;;;;;;;;;;;9.90;53.80;;;;;;4123239;28;19922;-83
2023/05/05 09:39:26;;;;;;;;;;;9.70;53.40;;;;;;4122444;28;20267;-83
2023/05/05 09:41:39;;;;;;;;;;;9.70;54.20;;;;;;4112526;28;19945;-85
2023/05/05 09:43:52;;;;;;;;;;;9.90;54.70;;;;;;4126404;28;19922;-85
2023/05/05 09:46:04;;;;;;;;;;;9.60;53.80;;;;;;4125294;28;19925;-83
2023/05/05 09:48:07;;;;;;;;;;;9.50;53.50;;;;;;4123584;28;19921;-83
2023/05/05 09:50:10;;;;;;;;;;;9.40;52.90;;;;;;4126370;28;20009;-83
2023/05/05 09:52:13;;;;;;;;;;;9.40;53.10;;;;;;4116778;28;19925;-85
2023/05/05 09:54:24;;;;;;;;;;;9.60;54.00;;;;;;4124459;28;19921;-84
2023/05/05 09:56:36;;;;;;;;;;;9.70;54.00;;;;;;4125355;28;19960;-82
2023/05/05 09:58:36;;;;;;;;;;;9.60;52.70;;;;;;4128935;28;19914;-83
2023/05/05 10:00:38;;;;;;;;;;;9.50;52.20;;;;;;4124877;28;21277;-82
2023/05/05 10:02:39;;;;;;;;;;;9.70;52.30;;;;;;4115934;28;19925;-86
2023/05/05 10:04:39;;;;;;;;;;;9.80;52.60;;;;;;4128370;28;19944;-83
2023/05/05 10:06:43;;;;;;;;;;;9.90;52.20;;;;;;4114695;28;20403;-85
2023/05/05 10:08:43;;;;;;;;;;;10.00;52.50;;;;;;4106512;28;20021;-86
2023/05/05 10:10:50;;;;;;;;;;;10.10;52.30;;;;;;4108408;28;19922;-84
2023/05/05 10:12:53;;;;;;;;;;;10.20;52.00;;;;;;4129155;28;19937;-84
2023/05/05 10:14:54;;;;;;;;;;;10.20;51.40;;;;;;4129766;28;19976;-84
2023/05/05 10:16:55;;;;;;;;;;;10.30;51.60;;;;;;4132088;28;19924;-83
2023/05/05 10:18:57;;;;;;;;;;;10.30;51.70;;;;;;4125158;28;19917;-84
2023/05/05 10:20:58;;;;;;;;;;;10.10;51.00;;;;;;4128993;28;19918;-84
2023/05/05 10:23:00;;;;;;;;;;;9.80;51.40;;;;;;4128504;28;19925;-83
2023/05/05 10:25:02;;;;;;;;;;;10.10;51.70;;;;;;4129702;28;19916;-83
2023/05/05 10:27:06;;;;;;;;;;;10.10;50.60;;;;;;4131735;28;20741;-83
2023/05/05 10:29:12;;;;;;;;;;;9.70;50.50;;;;;;4133104;28;20004;-84
2023/05/05 10:31:16;;;;;;;;;;;9.70;50.90;;;;;;4127034;28;19918;-86
2023/05/05 10:33:21;;;;;;;;;;;9.70;51.70;;;;;;4091840;28;19922;-87
2023/05/05 10:35:26;;;;;;;;;;;9.90;51.80;;;;;;4106251;28;19930;-83
2023/05/05 10:37:28;;;;;;;;;;;9.90;50.90;;;;;;4113778;28;20489;-84
2023/05/05 10:39:28;;;;;;;;;;;10.10;50.40;;;;;;4114810;28;20559;-83
2023/05/05 10:41:30;;;;;;;;;;;9.80;50.00;;;;;;4119359;28;20004;-83
2023/05/05 10:43:31;;;;;;;;;;;10.00;50.60;;;;;;4127084;28;20021;-82
2023/05/05 10:45:32;;;;;;;;;;;9.90;50.60;;;;;;4114354;28;19918;-82
2023/05/05 10:47:33;;;;;;;;;;;9.70;49.40;;;;;;4098264;28;19915;-81
2023/05/05 10:49:41;;;;;;;;;;;9.50;50.00;;;;;;4112863;28;19911;-81
2023/05/05 10:51:53;;;;;;;;;;;9.50;48.20;;;;;;4114928;28;20489;-79
2023/05/05 10:54:06;;;;;;;;;;;9.60;49.50;;;;;;4112666;28;19938;-81
2023/05/05 10:56:16;;;;;;;;;;;9.70;49.40;;;;;;4111455;28;19918;-82
2023/05/05 10:58:35;;;;;;;;;;;9.60;49.00;;;;;;4108849;28;19918;-85
2023/05/05 11:00:38;;;;;;;;;;;9.70;49.70;;;;;;4125734;28;19989;-83
2023/05/05 11:02:42;;;;;;;;;;;9.60;50.60;;;;;;4114901;28;20403;-81
2023/05/05 11:04:42;;;;;;;;;;;9.60;50.50;;;;;;4130585;28;19922;-82
2023/05/05 11:07:02;;;;;;;;;;;9.50;52.00;;;;;;4115720;28;19918;-82
2023/05/05 11:09:22;;;;;;;;;;;9.60;51.50;;;;;;4115567;28;20332;-81
2023/05/05 11:11:43;;;;;;;;;;;9.60;48.90;;;;;;4095280;28;20459;-81
2023/05/05 11:13:43;;;;;;;;;;;9.50;48.70;;;;;;4115678;28;19918;-83
2023/05/05 11:15:44;;;;;;;;;;;9.40;48.20;;;;;;4114979;28;19918;-81
2023/05/05 11:17:45;;;;;;;;;;;9.70;49.00;;;;;;4112700;28;19918;-83
2023/05/05 11:19:47;;;;;;;;;;;9.80;49.60;;;;;;4110953;28;20307;-81
2023/05/05 11:22:03;;;;;;;;;;;9.80;49.80;;;;;;4128613;28;19997;-82
2023/05/05 11:24:26;;;;;;;;;;;9.80;50.40;;;;;;4110435;28;19950;-82
2023/05/05 11:26:45;;;;;;;;;;;9.80;50.80;;;;;;4116953;28;19917;-82
2023/05/05 11:28:55;;;;;;;;;;;9.80;51.80;;;;;;4132626;28;19914;-79
2023/05/05 11:30:55;;;;;;;;;;;9.70;51.70;;;;;;4128391;28;20253;-82
2023/05/05 11:33:15;;;;;;;;;;;9.30;49.20;;;;;;4111449;28;19919;-82
2023/05/05 11:35:15;;;;;;;;;;;9.50;49.50;;;;;;4129880;28;19910;-81
2023/05/05 11:37:16;;;;;;;;;;;9.40;49.50;;;;;;4117992;28;20425;-81
2023/05/05 11:39:28;;;;;;;;;;;9.30;49.70;;;;;;4122471;28;19924;-81
2023/05/05 11:41:31;;;;;;;;;;;9.20;51.30;;;;;;4110981;28;19910;-84
2023/05/05 11:43:32;;;;;;;;;;;9.20;51.50;;;;;;4127306;28;20179;-86
2023/05/05 11:45:33;;;;;;;;;;;9.30;51.80;;;;;;4108525;28;20396;-83
2023/05/05 11:47:33;;;;;;;;;;;9.40;51.60;;;;;;4103715;28;19976;-85
2023/05/05 11:49:35;;;;;;;;;;;9.40;51.90;;;;;;4108123;28;20593;-84
2023/05/05 11:51:36;;;;;;;;;;;9.30;50.20;;;;;;4124885;28;20001;-85
2023/05/05 11:53:40;;;;;;;;;;;9.30;49.00;;;;;;4111450;28;19937;-84
2023/05/05 11:56:17;;;;;;;;;;;9.30;48.20;;;;;;4108824;28;20561;-84
2023/05/05 11:58:19;;;;;;;;;;;9.20;49.20;;;;;;4120436;28;20004;-85
2023/05/05 12:00:30;;;;;;;;;;;9.10;49.70;;;;;;4127316;28;19910;-87
2023/05/05 12:02:30;;;;;;;;;;;9.20;51.00;;;;;;4120209;28;20495;-84
2023/05/05 12:04:31;;;;;;;;;;;9.10;51.90;;;;;;4102255;28;19919;-83
2023/05/05 12:06:32;;;;;;;;;;;9.20;52.10;;;;;;4126432;28;19960;-83
2023/05/05 12:08:39;;;;;;;;;;;9.10;52.40;;;;;;4102614;28;19962;-84
2023/05/05 12:10:39;;;;;;;;;;;9.10;53.70;;;;;;4097574;28;19942;-84
2023/05/05 12:12:41;;;;;;;;;;;9.20;53.10;;;;;;4127544;28;20005;-86
2023/05/05 12:14:50;;;;;;;;;;;9.40;53.00;;;;;;4113213;28;19918;-84
2023/05/05 12:16:54;;;;;;;;;;;9.40;51.80;;;;;;4114844;28;20036;-83
2023/05/05 12:19:02;;;;;;;;;;;9.60;51.50;;;;;;4112705;28;20293;-82
2023/05/05 12:21:16;;;;;;;;;;;9.40;49.90;;;;;;4112288;28;20437;-83
2023/05/05 12:23:16;;;;;;;;;;;9.30;49.80;;;;;;4098452;28;19926;-84
2023/05/05 12:25:17;;;;;;;;;;;9.40;49.70;;;;;;4126726;28;19986;-82
2023/05/05 12:27:17;;;;;;;;;;;9.50;48.50;;;;;;4120769;28;19918;-85
2023/05/05 12:29:25;;;;;;;;;;;9.50;49.00;;;;;;4134356;28;19920;-81
2023/05/05 12:31:35;;;;;;;;;;;9.60;48.90;;;;;;4132323;28;19952;-84
2023/05/05 12:33:39;;;;;;;;;;;9.60;49.70;;;;;;4112034;28;20021;-84
2023/05/05 12:35:40;;;;;;;;;;;9.70;50.00;;;;;;4118306;28;19922;-85
2023/05/05 12:37:41;;;;;;;;;;;9.40;50.20;;;;;;4111402;28;20416;-83
2023/05/05 12:39:42;;;;;;;;;;;9.40;50.30;;;;;;4125378;28;19921;-81
2023/05/05 12:41:43;;;;;;;;;;;9.30;50.40;;;;;;4130241;28;19918;-81
2023/05/05 12:43:43;;;;;;;;;;;9.40;50.40;;;;;;4112771;28;19926;-83
2023/05/05 12:45:44;;;;;;;;;;;9.30;48.00;;;;;;4096406;28;19981;-83
2023/05/05 12:47:45;;;;;;;;;;;9.30;48.70;;;;;;4106024;28;19918;-82
2023/05/05 12:49:46;;;;;;;;;;;9.30;49.10;;;;;;4091999;28;19910;-83
2023/05/05 12:51:53;;;;;;;;;;;9.30;49.90;;;;;;4111048;28;19922;-83
2023/05/05 12:54:01;;;;;;;;;;;9.20;50.40;;;;;;4111643;28;19922;-84
2023/05/05 12:56:02;;;;;;;;;;;9.00;50.90;;;;;;4113222;28;20001;-83
2023/05/05 12:58:03;;;;;;;;;;;8.90;51.40;;;;;;4112755;28;19918;-83
2023/05/05 13:00:14;;;;;;;;;;;8.90;52.80;;;;;;4110079;28;19914;-83
2023/05/05 13:02:15;;;;;;;;;;;8.90;52.10;;;;;;4124544;28;19984;-83
2023/05/05 13:04:16;;;;;;;;;;;8.80;51.40;;;;;;4126924;28;20062;-82
2023/05/05 13:06:18;;;;;;;;;;;8.80;51.70;;;;;;4092317;28;19978;-82
2023/05/05 13:08:18;;;;;;;;;;;8.40;49.60;;;;;;4110251;28;19922;-83
2023/05/05 13:10:19;;;;;;;;;;;8.40;50.80;;;;;;4107293;28;19949;-82
2023/05/05 13:12:19;;;;;;;;;;;8.40;51.30;;;;;;4093298;28;19922;-85
2023/05/05 13:14:21;;;;;;;;;;;8.50;51.70;;;;;;4113438;28;19922;-82
2023/05/05 13:16:21;;;;;;;;;;;8.20;49.50;;;;;;4110298;28;19941;-81
2023/05/05 13:18:22;;;;;;;;;;;8.10;49.80;;;;;;4092933;28;19926;-82
2023/05/05 13:20:22;;;;;;;;;;;8.30;51.20;;;;;;4105892;28;20351;-80
2023/05/05 13:22:23;;;;;;;;;;;8.50;51.50;;;;;;4095800;28;19945;-82
2023/05/05 13:24:35;;;;;;;;;;;8.40;51.50;;;;;;4128295;28;20739;-83
2023/05/05 13:26:55;;;;;;;;;;;8.50;52.90;;;;;;4111839;28;20803;-80
2023/05/05 13:28:57;;;;;;;;;;;8.50;52.80;;;;;;4125424;28;19922;-83
2023/05/05 13:31:18;;;;;;;;;;;8.60;53.20;;;;;;4126298;28;20481;-83
2023/05/05 13:33:18;;;;;;;;;;;8.70;52.40;;;;;;4128719;28;19925;-83